首页
METAR-TAF:

METAR-TAF

机场 :

巴馬科, 马里共和国

巴馬科國際機場

纬度: 12-32N, 经度: 007-57W, 海拔: 380米

当前天气观测

该预报发布于21分钟前的22:00 UTC
风速4节,风向北转东北
温度 29°C
湿度 25%
气压 1011 hPa
能见度10公里或以上
1500米以下无云,无积雨云

METAR: GABS 252200Z 03004KT CAVOK 29/07 Q1011 NOSIG

时间: 22:21 (22:21 UTC)

预报

该预报发布于5小时和5分钟前的17:16 UTC
预报有效从25日的 18点(UTC)到 26日的 24点(UTC)
风速10节,风向东转东北
能見度: 8000

TAF: GABS 251716Z 2518/2624 06010KT 8000 NSC

超过4000个机场的气象观测和天气预报(METAR&TAF报告)。

可查询的气象台以黄色和红色小点在地图上表示。

将鼠标移到小点上方,可查看气象台名称。

然后点击查看天气观测和预报。

如需切换地图:点击带黑十字的绿色按钮放大地图;点击带横线的绿色按钮缩小地图;或者点击绿色箭头查看邻近地区的地图。


METAR-TAF: